Bangkok Bridge — 3FTZ8 — position and weather

sailwx.info

Track history (hours):
 
Tides and Currents Weather Stations Pressure Air Temp Water Temp Dewpoint Dewpoint Depression Visibility Wind Speed Wind Dir Waves Ship Positions

Bangkok Bridge

Last reported at 2018-Jul-20 01:31 UTC. Time now 2018-Jul-22 03:07 UTC.
Position N 33°45' E 135°02'.

Length 267 m; draft 8.5 m.

Type: Ship (hazmat cat A). MMSI: 353368000.

Date/timePositionNaut miles runAvg speedWind from/ knotsBaromVisibWave heightAir tempDewpointWater temp
2018-Jul-20 01:31N 33°45' E 135°02'112.2
2018-Jul-20 01:27N 33°46' E 135°01'712.4
2018-Jul-20 00:52N 33°53' E 134°58'612.6
2018-Jul-20 00:23N 33°59' E 134°58'512.3
2018-Jul-20 00:01N 34°03' E 134°58'612.9
2018-Jul-19 23:31N 34°10' E 134°58'713.8
2018-Jul-19 23:00N 34°17' E 134°59'816.8
2018-Jul-19 22:30N 34°24' E 135°03'917.4
2018-Jul-19 22:01N 34°31' E 135°10'816.4
2018-Jul-19 21:30N 34°37' E 135°16'3 5.9
2018-Jul-19 20:55N 34°41' E 135°16'0 0.0
2018-Jul-19 20:28N 34°41' E 135°16'0 0.0
2018-Jul-19 19:55N 34°41' E 135°16'0 0.0
2018-Jul-19 19:28N 34°41' E 135°16'0 0.0
2018-Jul-19 18:58N 34°41' E 135°16'0 0.0
2018-Jul-19 18:25N 34°41' E 135°16'0 0.0
2018-Jul-19 17:55N 34°41' E 135°16'0 0.0
2018-Jul-19 17:25N 34°41' E 135°16'0 0.0
2018-Jul-19 16:55N 34°41' E 135°16'0 0.0
2018-Jul-19 16:25N 34°41' E 135°16'0 0.0
2018-Jul-19 15:49N 34°41' E 135°16'0 0.0
2018-Jul-19 15:25N 34°41' E 135°16'0 0.0
2018-Jul-19 14:55N 34°41' E 135°16'0 0.0
2018-Jul-19 14:25N 34°41' E 135°16'0 0.0
2018-Jul-19 13:25N 34°41' E 135°16'0 0.0
2018-Jul-19 12:55N 34°41' E 135°16'0 0.0
2018-Jul-19 12:28N 34°41' E 135°16'0 0.0
2018-Jul-19 11:58N 34°41' E 135°16'0 0.0
2018-Jul-19 11:28N 34°41' E 135°16'0 0.0
2018-Jul-19 10:55N 34°41' E 135°16'0 0.0
2018-Jul-19 10:28N 34°41' E 135°16'1 1.7
2018-Jul-19 10:00N 34°41' E 135°17'3 6.8
2018-Jul-19 09:30N 34°38' E 135°19'612.1
2018-Jul-19 09:01N 34°33' E 135°15'815.6
2018-Jul-19 08:30N 34°27' E 135°08'917.3
2018-Jul-19 08:00N 34°20' E 135°02'816.3
2018-Jul-19 07:31N 34°12' E 134°60'713.5
2018-Jul-19 07:00N 34°05' E 134°60'917.8
2018-Jul-19 06:31N 33°56' E 134°60'612.0
2018-Jul-19 06:00N 33°51' E 134°60'714.5
2018-Jul-19 05:30N 33°44' E 135°03'814.5
2018-Jul-19 04:59N 33°38' E 135°09'22116.7
2018-Jul-18 15:43N 34°39' E 139°25'516.3
2018-Jul-18 15:24N 34°40' E 139°31'816.9
2018-Jul-18 14:57N 34°47' E 139°34'818.5
2018-Jul-18 14:30N 34°54' E 139°38'1818.5
2018-Jul-18 13:30N 35°12' E 139°46'611.5
2018-Jul-18 13:01N 35°17' E 139°45'612.8
2018-Jul-18 12:30N 35°23' E 139°42'815.8
2018-Jul-18 12:01N 35°29' E 139°49'713.0
2018-Jul-18 11:30N 35°35' E 139°47'2 1.6
2018-Jul-18 10:13N 35°37' E 139°46'0 0.0
2018-Jul-18 09:43N 35°37' E 139°46'0 0.0
2018-Jul-18 09:13N 35°37' E 139°46'0 0.0
2018-Jul-18 08:55N 35°37' E 139°46'0 0.0
2018-Jul-17 22:05N 35°37' E 139°46'0 0.7
2018-Jul-17 22:00N 35°37' E 139°46'3 5.2
2018-Jul-17 21:30N 35°35' E 139°48'611.3
2018-Jul-17 21:00N 35°30' E 139°52'815.5
2018-Jul-17 20:31N 35°24' E 139°46'612.3
2018-Jul-17 20:01N 35°18' E 139°45'612.4
2018-Jul-17 19:30N 35°12' E 139°47'5 9.3
2018-Jul-17 19:01N 35°07' E 139°46'5 9.4
2018-Jul-17 18:30N 35°03' E 139°44'510.8
2018-Jul-17 18:00N 34°58' E 139°41'611.1
2018-Jul-17 17:30N 34°53' E 139°44'713.5
2018-Jul-17 16:58N 34°49' E 139°52'  
Track history (hours):
 
Tides and Currents Weather Stations Pressure Air Temp Water Temp Dewpoint Dewpoint Depression Visibility Wind Speed Wind Dir Waves Ship Positions

Bangkok Bridge

Last reported at 2018-Jul-20 01:31 UTC. Time now 2018-Jul-22 03:07 UTC.
Position N 33°45' E 135°02'.

Length 267 m; draft 8.5 m.

Type: Ship (hazmat cat A). MMSI: 353368000.

Date/timePositionNaut miles runAvg speedWind from/ knotsBaromVisibWave heightAir tempDewpointWater temp
2018-Jul-20 01:31N 33°45' E 135°02'112.2
2018-Jul-20 01:27N 33°46' E 135°01'712.4
2018-Jul-20 00:52N 33°53' E 134°58'612.6
2018-Jul-20 00:23N 33°59' E 134°58'512.3
2018-Jul-20 00:01N 34°03' E 134°58'612.9
2018-Jul-19 23:31N 34°10' E 134°58'713.8
2018-Jul-19 23:00N 34°17' E 134°59'816.8
2018-Jul-19 22:30N 34°24' E 135°03'917.4
2018-Jul-19 22:01N 34°31' E 135°10'816.4
2018-Jul-19 21:30N 34°37' E 135°16'3 5.9
2018-Jul-19 20:55N 34°41' E 135°16'0 0.0
2018-Jul-19 20:28N 34°41' E 135°16'0 0.0
2018-Jul-19 19:55N 34°41' E 135°16'0 0.0
2018-Jul-19 19:28N 34°41' E 135°16'0 0.0
2018-Jul-19 18:58N 34°41' E 135°16'0 0.0
2018-Jul-19 18:25N 34°41' E 135°16'0 0.0
2018-Jul-19 17:55N 34°41' E 135°16'0 0.0
2018-Jul-19 17:25N 34°41' E 135°16'0 0.0
2018-Jul-19 16:55N 34°41' E 135°16'0 0.0
2018-Jul-19 16:25N 34°41' E 135°16'0 0.0
2018-Jul-19 15:49N 34°41' E 135°16'0 0.0
2018-Jul-19 15:25N 34°41' E 135°16'0 0.0
2018-Jul-19 14:55N 34°41' E 135°16'0 0.0
2018-Jul-19 14:25N 34°41' E 135°16'0 0.0
2018-Jul-19 13:25N 34°41' E 135°16'0 0.0
2018-Jul-19 12:55N 34°41' E 135°16'0 0.0
2018-Jul-19 12:28N 34°41' E 135°16'0 0.0
2018-Jul-19 11:58N 34°41' E 135°16'0 0.0
2018-Jul-19 11:28N 34°41' E 135°16'0 0.0
2018-Jul-19 10:55N 34°41' E 135°16'0 0.0
2018-Jul-19 10:28N 34°41' E 135°16'1 1.7
2018-Jul-19 10:00N 34°41' E 135°17'3 6.8
2018-Jul-19 09:30N 34°38' E 135°19'612.1
2018-Jul-19 09:01N 34°33' E 135°15'815.6
2018-Jul-19 08:30N 34°27' E 135°08'917.3
2018-Jul-19 08:00N 34°20' E 135°02'816.3
2018-Jul-19 07:31N 34°12' E 134°60'713.5
2018-Jul-19 07:00N 34°05' E 134°60'917.8
2018-Jul-19 06:31N 33°56' E 134°60'612.0
2018-Jul-19 06:00N 33°51' E 134°60'714.5
2018-Jul-19 05:30N 33°44' E 135°03'814.5
2018-Jul-19 04:59N 33°38' E 135°09'22116.7
2018-Jul-18 15:43N 34°39' E 139°25'516.3
2018-Jul-18 15:24N 34°40' E 139°31'816.9
2018-Jul-18 14:57N 34°47' E 139°34'818.5
2018-Jul-18 14:30N 34°54' E 139°38'1818.5
2018-Jul-18 13:30N 35°12' E 139°46'611.5
2018-Jul-18 13:01N 35°17' E 139°45'612.8
2018-Jul-18 12:30N 35°23' E 139°42'815.8
2018-Jul-18 12:01N 35°29' E 139°49'713.0
2018-Jul-18 11:30N 35°35' E 139°47'2 1.6
2018-Jul-18 10:13N 35°37' E 139°46'0 0.0
2018-Jul-18 09:43N 35°37' E 139°46'0 0.0
2018-Jul-18 09:13N 35°37' E 139°46'0 0.0
2018-Jul-18 08:55N 35°37' E 139°46'0 0.0
2018-Jul-17 22:05N 35°37' E 139°46'0 0.7
2018-Jul-17 22:00N 35°37' E 139°46'3 5.2
2018-Jul-17 21:30N 35°35' E 139°48'611.3
2018-Jul-17 21:00N 35°30' E 139°52'815.5
2018-Jul-17 20:31N 35°24' E 139°46'612.3
2018-Jul-17 20:01N 35°18' E 139°45'612.4
2018-Jul-17 19:30N 35°12' E 139°47'5 9.3
2018-Jul-17 19:01N 35°07' E 139°46'5 9.4
2018-Jul-17 18:30N 35°03' E 139°44'510.8
2018-Jul-17 18:00N 34°58' E 139°41'611.1
2018-Jul-17 17:30N 34°53' E 139°44'713.5
2018-Jul-17 16:58N 34°49' E 139°52'  

Dump ship's entire track history